createdAt,value
2023-06-11T00:01:34.371Z,18.96
2023-06-11T00:04:06.035Z,18.91
2023-06-11T00:06:37.772Z,18.92
2023-06-11T00:09:09.286Z,18.85
2023-06-11T00:11:40.819Z,18.76
2023-06-11T00:14:12.634Z,18.73
2023-06-11T00:16:44.409Z,18.70
2023-06-11T00:19:16.021Z,18.64
2023-06-11T00:21:47.515Z,18.63
2023-06-11T00:24:19.433Z,18.61
2023-06-11T00:26:51.082Z,18.56
2023-06-11T00:29:22.749Z,18.53
2023-06-11T00:31:54.303Z,18.47
2023-06-11T00:34:25.975Z,18.44
2023-06-11T00:36:57.476Z,18.33
2023-06-11T00:39:29.287Z,18.33
2023-06-11T00:42:00.840Z,18.27
2023-06-11T00:44:32.910Z,18.21
2023-06-11T00:47:04.719Z,18.12
2023-06-11T00:49:36.626Z,18.12
2023-06-11T00:52:08.401Z,18.04
2023-06-11T00:54:39.924Z,18.00
2023-06-11T00:57:11.746Z,17.95
2023-06-11T00:59:43.229Z,17.87
2023-06-11T01:02:14.911Z,17.87
2023-06-11T01:04:46.488Z,17.84
2023-06-11T01:07:18.402Z,17.77
2023-06-11T01:09:49.900Z,17.76
2023-06-11T01:12:21.754Z,17.72
2023-06-11T01:14:53.240Z,17.66
2023-06-11T01:17:25.248Z,17.62
2023-06-11T01:19:57.105Z,17.53
2023-06-11T01:22:28.964Z,17.48
2023-06-11T01:25:00.997Z,17.42
2023-06-11T01:27:32.489Z,17.43
2023-06-11T01:30:04.380Z,17.37
2023-06-11T01:32:35.929Z,17.31
2023-06-11T01:35:07.990Z,17.23
2023-06-11T01:37:39.771Z,17.22
2023-06-11T01:40:11.666Z,16.80
2023-06-11T01:42:43.195Z,17.14
2023-06-11T01:45:15.124Z,17.15
2023-06-11T01:47:46.697Z,17.11
2023-06-11T01:50:18.278Z,17.03
2023-06-11T01:52:50.168Z,16.98
2023-06-11T01:55:22.044Z,16.99
2023-06-11T01:57:54.011Z,16.97
2023-06-11T02:00:25.570Z,16.94
2023-06-11T02:02:57.950Z,16.88
2023-06-11T02:05:29.632Z,16.79
2023-06-11T02:08:01.581Z,16.73
2023-06-11T02:10:33.103Z,16.65
2023-06-11T02:13:04.920Z,16.62
2023-06-11T02:15:36.453Z,16.53
2023-06-11T02:18:08.468Z,16.53
2023-06-11T02:20:40.093Z,16.49
2023-06-11T02:23:11.817Z,16.44
2023-06-11T02:25:43.390Z,16.44
2023-06-11T02:28:15.103Z,16.32
2023-06-11T02:30:46.661Z,16.33
2023-06-11T02:33:18.605Z,16.26
2023-06-11T02:35:50.491Z,16.28
2023-06-11T02:38:22.020Z,16.26
2023-06-11T02:40:53.599Z,16.18
2023-06-11T02:43:25.123Z,16.12
2023-06-11T02:45:56.927Z,16.11
2023-06-11T02:48:28.521Z,16.07
2023-06-11T02:51:00.368Z,16.11
2023-06-11T02:53:31.882Z,16.06
2023-06-11T02:56:03.836Z,15.97
2023-06-11T02:58:35.419Z,16.01
2023-06-11T03:01:07.344Z,15.97
2023-06-11T03:03:38.951Z,15.90
2023-06-11T03:06:10.943Z,15.90
2023-06-11T03:08:42.802Z,15.85
2023-06-11T03:11:14.301Z,15.86
2023-06-11T03:13:46.205Z,15.86
2023-06-11T03:16:17.899Z,15.89
2023-06-11T03:18:49.737Z,15.86
2023-06-11T03:21:21.264Z,15.81
2023-06-11T03:23:53.284Z,15.89
2023-06-11T03:26:24.849Z,15.84
2023-06-11T03:28:56.846Z,15.91
2023-06-11T03:31:28.440Z,15.96
2023-06-11T03:34:00.379Z,15.98
2023-06-11T03:36:32.167Z,16.01
2023-06-11T03:39:04.193Z,15.99
2023-06-11T03:41:35.919Z,16.11
2023-06-11T03:44:07.440Z,16.10
2023-06-11T03:46:39.350Z,16.02
2023-06-11T03:49:10.933Z,16.09
2023-06-11T03:51:42.811Z,16.08
2023-06-11T03:54:14.350Z,16.17
2023-06-11T03:56:46.233Z,16.30
2023-06-11T03:59:17.783Z,16.29
2023-06-11T04:01:49.993Z,16.37
2023-06-11T04:04:21.576Z,16.33
2023-06-11T04:06:53.584Z,16.37
2023-06-11T04:09:25.357Z,16.38
2023-06-11T04:11:57.313Z,16.51
2023-06-11T04:14:29.194Z,16.46
2023-06-11T04:17:00.846Z,16.51
2023-06-11T04:19:32.893Z,16.55
2023-06-11T04:22:04.486Z,16.69
2023-06-11T04:24:36.558Z,16.80
2023-06-11T04:27:08.094Z,16.87
2023-06-11T04:29:39.945Z,16.93
2023-06-11T04:32:11.522Z,16.89
2023-06-11T04:34:43.196Z,16.88
2023-06-11T04:37:14.731Z,17.04
2023-06-11T04:39:46.609Z,17.12
2023-06-11T04:42:18.146Z,17.19
2023-06-11T04:44:50.032Z,17.25
2023-06-11T04:47:22.005Z,17.43
2023-06-11T04:49:53.545Z,17.24
2023-06-11T04:52:25.401Z,17.38
2023-06-11T04:54:56.949Z,17.50
2023-06-11T04:57:28.682Z,17.51
2023-06-11T05:00:00.236Z,17.61
2023-06-11T05:02:32.056Z,17.71
2023-06-11T05:05:03.657Z,18.05
2023-06-11T05:07:35.721Z,18.27
2023-06-11T05:10:07.318Z,18.38
2023-06-11T05:12:39.420Z,18.39
2023-06-11T05:15:11.174Z,18.65
2023-06-11T05:17:43.360Z,18.61
2023-06-11T05:20:14.943Z,18.77
2023-06-11T05:22:46.754Z,19.01
2023-06-11T05:25:18.537Z,19.26
2023-06-11T05:27:50.069Z,19.10
2023-06-11T05:30:21.837Z,19.30
2023-06-11T05:32:53.446Z,19.54
2023-06-11T05:35:25.203Z,19.71
2023-06-11T05:37:56.747Z,19.61
2023-06-11T05:40:28.628Z,19.78
2023-06-11T05:43:00.181Z,19.57
2023-06-11T05:45:32.330Z,19.75
2023-06-11T05:48:03.949Z,19.92
2023-06-11T05:50:35.862Z,19.98
2023-06-11T05:53:07.734Z,20.31
2023-06-11T05:55:39.481Z,20.51
2023-06-11T05:58:11.333Z,20.50
2023-06-11T06:00:42.887Z,20.55
2023-06-11T06:03:14.685Z,20.93
2023-06-11T06:05:46.302Z,20.98
2023-06-11T06:08:18.167Z,21.26
2023-06-11T06:10:49.711Z,21.34
2023-06-11T06:13:21.676Z,21.19
2023-06-11T06:15:53.247Z,21.32
2023-06-11T06:18:25.068Z,21.37
2023-06-11T06:20:56.627Z,21.51
2023-06-11T06:23:28.495Z,21.52
2023-06-11T06:26:00.065Z,21.86
2023-06-11T06:28:31.909Z,21.46
2023-06-11T06:31:03.631Z,22.12
2023-06-11T06:33:35.364Z,21.93
2023-06-11T06:36:07.113Z,21.80
2023-06-11T06:38:38.662Z,22.17
2023-06-11T06:41:10.385Z,22.48
2023-06-11T06:43:41.873Z,22.55
2023-06-11T06:46:13.733Z,22.73
2023-06-11T06:48:45.448Z,22.81
2023-06-11T06:51:17.239Z,23.25
2023-06-11T06:53:48.734Z,23.25
2023-06-11T06:56:20.492Z,23.15
2023-06-11T06:58:52.463Z,23.37
2023-06-11T07:01:24.308Z,23.54
2023-06-11T07:03:56.387Z,23.49
2023-06-11T07:06:27.898Z,23.36
2023-06-11T07:08:59.718Z,23.87
2023-06-11T07:11:31.218Z,23.68
2023-06-11T07:14:03.190Z,23.71
2023-06-11T07:16:34.768Z,23.96
2023-06-11T07:19:06.698Z,23.94
2023-06-11T07:21:38.337Z,23.75
2023-06-11T07:24:10.102Z,24.26
2023-06-11T07:26:41.676Z,24.43
2023-06-11T07:29:13.505Z,24.36
2023-06-11T07:31:45.368Z,24.50
2023-06-11T07:34:16.905Z,24.82
2023-06-11T07:36:48.847Z,24.89
2023-06-11T07:39:20.339Z,24.81
2023-06-11T07:41:52.157Z,24.63
2023-06-11T07:44:23.648Z,25.16
2023-06-11T07:46:55.478Z,25.13
2023-06-11T07:49:27.058Z,25.23
2023-06-11T07:51:58.893Z,25.36
2023-06-11T07:54:30.391Z,25.31
2023-06-11T07:57:01.923Z,25.36
2023-06-11T07:59:33.676Z,26.01
2023-06-11T08:02:05.475Z,25.79
2023-06-11T08:04:37.180Z,26.11
2023-06-11T08:07:08.696Z,25.89
2023-06-11T08:09:40.563Z,26.08
2023-06-11T08:12:12.083Z,25.99
2023-06-11T08:14:43.905Z,26.15
2023-06-11T08:17:15.400Z,25.85
2023-06-11T08:19:47.366Z,26.20
2023-06-11T08:22:18.876Z,26.39
2023-06-11T08:24:50.839Z,26.44
2023-06-11T08:27:22.658Z,26.87
2023-06-11T08:29:54.489Z,26.71
2023-06-11T08:32:26.688Z,26.77
2023-06-11T08:34:58.418Z,26.68
2023-06-11T08:37:30.537Z,26.98
2023-06-11T08:40:02.064Z,26.91
2023-06-11T08:42:33.935Z,27.08
2023-06-11T08:45:05.457Z,27.34
2023-06-11T08:47:37.155Z,27.23
2023-06-11T08:50:08.917Z,27.06
2023-06-11T08:52:40.891Z,27.15
2023-06-11T08:55:12.391Z,27.55
2023-06-11T08:57:44.166Z,27.40
2023-06-11T09:00:15.660Z,27.55
2023-06-11T09:02:47.594Z,27.64
2023-06-11T09:05:19.625Z,27.42
2023-06-11T09:07:51.129Z,27.34
2023-06-11T09:10:23.041Z,27.79
2023-06-11T09:12:56.802Z,27.98
2023-06-11T09:15:29.566Z,27.68
2023-06-11T09:18:01.159Z,27.76
2023-06-11T09:20:33.030Z,28.50
2023-06-11T09:23:04.538Z,28.09
2023-06-11T09:25:36.367Z,28.39
2023-06-11T09:28:07.845Z,28.56
2023-06-11T09:30:39.724Z,28.73
2023-06-11T09:33:11.667Z,28.87
2023-06-11T09:35:43.157Z,29.41
2023-06-11T09:38:15.019Z,29.03
2023-06-11T09:40:46.517Z,29.07
2023-06-11T09:43:18.284Z,29.21
2023-06-11T09:45:49.833Z,29.21
2023-06-11T09:48:21.795Z,28.54
2023-06-11T09:50:53.290Z,29.31
2023-06-11T09:53:25.153Z,29.82
2023-06-11T09:56:09.310Z,29.82
2023-06-11T09:58:42.819Z,29.68
2023-06-11T10:01:14.650Z,30.15
2023-06-11T10:03:46.216Z,30.33
2023-06-11T10:06:17.932Z,30.06
2023-06-11T10:08:49.443Z,30.51
2023-06-11T10:11:21.478Z,30.56
2023-06-11T10:13:52.959Z,30.27
2023-06-11T10:16:24.764Z,30.76
2023-06-11T10:18:56.322Z,29.53
2023-06-11T10:21:28.302Z,30.77
2023-06-11T10:24:00.029Z,30.47
2023-06-11T10:26:32.069Z,30.57
2023-06-11T10:29:06.303Z,30.63
2023-06-11T10:31:38.674Z,31.01
2023-06-11T10:34:10.561Z,31.02
2023-06-11T10:36:42.097Z,31.22
2023-06-11T10:39:13.926Z,31.48
2023-06-11T10:41:45.447Z,30.75
2023-06-11T10:44:17.272Z,29.73
2023-06-11T10:46:48.802Z,30.82
2023-06-11T10:49:20.669Z,30.91
2023-06-11T10:51:52.146Z,31.21
2023-06-11T10:54:24.106Z,31.05
2023-06-11T10:56:55.921Z,30.95
2023-06-11T10:59:27.755Z,31.37
2023-06-11T11:01:59.489Z,31.37
2023-06-11T11:04:31.112Z,31.64
2023-06-11T11:07:02.807Z,32.69
2023-06-11T11:09:34.307Z,32.06
2023-06-11T11:12:06.091Z,30.83
2023-06-11T11:14:37.608Z,30.85
2023-06-11T11:17:09.576Z,31.69
2023-06-11T11:19:41.148Z,32.08
2023-06-11T11:22:13.869Z,31.55
2023-06-11T11:24:45.382Z,31.96
2023-06-11T11:27:16.888Z,31.92
2023-06-11T11:29:48.707Z,32.79
2023-06-11T11:32:20.247Z,32.10
2023-06-11T11:34:52.081Z,32.88
2023-06-11T11:37:23.622Z,32.86
2023-06-11T11:39:55.544Z,33.51
2023-06-11T11:42:27.029Z,32.61
2023-06-11T11:44:58.876Z,33.07
2023-06-11T11:47:30.452Z,33.42
2023-06-11T11:50:02.322Z,32.75
2023-06-11T11:52:33.811Z,33.19
2023-06-11T11:55:05.723Z,33.34
2023-06-11T11:57:37.252Z,33.56
2023-06-11T12:00:08.851Z,32.68
2023-06-11T12:02:40.751Z,32.03
2023-06-11T12:05:12.304Z,32.71
2023-06-11T12:07:44.121Z,33.47
2023-06-11T12:10:15.747Z,31.72
2023-06-11T12:12:47.564Z,30.91
2023-06-11T12:15:19.081Z,30.77
2023-06-11T12:17:50.631Z,32.68
2023-06-11T12:20:22.179Z,33.21
2023-06-11T12:22:54.054Z,33.11
2023-06-11T12:25:26.160Z,31.70
2023-06-11T12:27:58.030Z,30.58
2023-06-11T12:30:29.984Z,29.77
2023-06-11T12:33:01.629Z,31.46
2023-06-11T12:35:33.539Z,32.67
2023-06-11T12:38:05.048Z,33.45
2023-06-11T12:40:37.101Z,33.76
2023-06-11T12:43:08.594Z,33.32
2023-06-11T12:45:40.363Z,34.20
2023-06-11T12:48:11.984Z,33.77
2023-06-11T12:50:44.102Z,33.79
2023-06-11T12:53:15.646Z,32.83
2023-06-11T12:55:47.626Z,31.79
2023-06-11T12:58:19.148Z,31.24
2023-06-11T13:00:50.676Z,30.51
2023-06-11T13:03:22.666Z,30.88
2023-06-11T13:05:54.168Z,32.68
2023-06-11T13:08:26.050Z,33.00
2023-06-11T13:10:57.548Z,32.13
2023-06-11T13:13:29.409Z,33.42
2023-06-11T13:16:00.931Z,33.84
2023-06-11T13:18:32.805Z,33.66
2023-06-11T13:21:04.302Z,34.47
2023-06-11T13:23:36.159Z,35.02
2023-06-11T13:26:07.685Z,35.09
2023-06-11T13:28:39.510Z,35.23
2023-06-11T13:31:11.061Z,34.73
2023-06-11T13:33:42.640Z,35.17
2023-06-11T13:36:14.342Z,34.16
2023-06-11T13:38:45.849Z,34.10
2023-06-11T13:41:17.720Z,35.23
2023-06-11T13:43:49.218Z,32.97
2023-06-11T13:46:21.100Z,31.98
2023-06-11T13:48:52.637Z,33.82
2023-06-11T13:51:24.646Z,34.51
2023-06-11T13:53:56.200Z,34.23
2023-06-11T13:56:27.830Z,35.27
2023-06-11T13:58:59.344Z,34.38
2023-06-11T14:01:31.168Z,33.59
2023-06-11T14:04:02.679Z,33.82
2023-06-11T14:06:34.508Z,31.96
2023-06-11T14:09:06.376Z,31.38
2023-06-11T14:11:38.213Z,32.00
2023-06-11T14:14:10.043Z,31.88
2023-06-11T14:16:41.603Z,31.57
2023-06-11T14:19:13.500Z,31.62
2023-06-11T14:21:45.000Z,31.42
2023-06-11T14:24:17.093Z,32.10
2023-06-11T14:26:48.645Z,33.34
2023-06-11T14:29:20.363Z,33.88
2023-06-11T14:31:51.933Z,33.96
2023-06-11T14:34:23.919Z,32.85
2023-06-11T14:36:55.409Z,32.71
2023-06-11T14:39:27.140Z,32.07
2023-06-11T14:41:59.020Z,32.82
2023-06-11T14:44:31.062Z,33.46
2023-06-11T14:47:02.949Z,34.61
2023-06-11T14:49:34.434Z,35.31
2023-06-11T14:52:06.247Z,35.45
2023-06-11T14:54:37.773Z,36.09
2023-06-11T14:57:09.626Z,36.18
2023-06-11T14:59:41.143Z,34.92
2023-06-11T15:02:13.014Z,34.71
2023-06-11T15:04:44.553Z,34.83
2023-06-11T15:07:29.784Z,35.19
2023-06-11T15:10:06.042Z,34.75
2023-06-11T15:12:38.043Z,34.68
2023-06-11T15:15:09.768Z,34.55
2023-06-11T15:17:41.295Z,33.13
2023-06-11T15:20:13.322Z,31.40
2023-06-11T15:22:45.086Z,31.34
2023-06-11T15:25:16.967Z,31.05
2023-06-11T15:27:48.494Z,30.50
2023-06-11T15:30:20.159Z,30.20
2023-06-11T15:32:51.699Z,29.94
2023-06-11T15:35:23.657Z,30.17
2023-06-11T15:37:55.163Z,31.97
2023-06-11T15:40:27.001Z,32.67
2023-06-11T15:42:58.849Z,33.03
2023-06-11T15:45:30.697Z,32.42
2023-06-11T15:48:02.386Z,31.58
2023-06-11T15:50:33.974Z,32.75
2023-06-11T15:53:05.964Z,33.41
2023-06-11T15:55:37.472Z,33.41
2023-06-11T15:58:09.316Z,33.60
2023-06-11T16:00:40.805Z,33.55
2023-06-11T16:03:12.726Z,32.58
2023-06-11T16:05:44.237Z,32.93
2023-06-11T16:08:16.121Z,33.50
2023-06-11T16:10:47.647Z,32.73
2023-06-11T16:13:19.543Z,31.13
2023-06-11T16:15:51.270Z,31.38
2023-06-11T16:18:22.855Z,31.57
2023-06-11T16:20:54.711Z,30.97
2023-06-11T16:23:26.202Z,30.50
2023-06-11T16:25:58.096Z,30.63
2023-06-11T16:28:29.615Z,30.38
2023-06-11T16:31:01.624Z,30.10
2023-06-11T16:33:47.637Z,29.24
2023-06-11T16:36:24.976Z,29.03
2023-06-11T16:39:01.226Z,28.98
2023-06-11T16:41:38.351Z,28.65
2023-06-11T16:44:10.212Z,29.09
2023-06-11T16:46:41.873Z,29.08
2023-06-11T16:49:13.851Z,28.93
2023-06-11T16:51:45.387Z,28.94
2023-06-11T16:54:18.918Z,28.79
2023-06-11T16:56:50.841Z,28.79
2023-06-11T16:59:22.620Z,28.76
2023-06-11T17:01:54.131Z,28.84
2023-06-11T17:04:26.034Z,28.12
2023-06-11T17:06:58.106Z,28.01
2023-06-11T17:09:29.944Z,28.06
2023-06-11T17:12:01.821Z,28.13
2023-06-11T17:14:33.367Z,28.03
2023-06-11T17:17:05.343Z,27.92
2023-06-11T17:19:36.968Z,27.82
2023-06-11T17:22:08.769Z,27.70
2023-06-11T17:24:40.374Z,27.76
2023-06-11T17:27:12.542Z,27.48
2023-06-11T17:29:44.049Z,27.53
2023-06-11T17:32:15.866Z,27.50
2023-06-11T17:34:47.406Z,27.39
2023-06-11T17:37:19.111Z,27.22
2023-06-11T17:39:50.638Z,27.07
2023-06-11T17:42:22.490Z,26.81
2023-06-11T17:44:54.284Z,26.94
2023-06-11T17:47:26.189Z,26.84
2023-06-11T17:49:58.035Z,26.72
2023-06-11T17:52:29.588Z,26.63
2023-06-11T17:55:01.618Z,26.60
2023-06-11T17:57:33.110Z,26.50
2023-06-11T18:00:04.859Z,26.32
2023-06-11T18:02:36.361Z,26.25
2023-06-11T18:05:08.510Z,26.25
2023-06-11T18:07:40.140Z,26.25
2023-06-11T18:10:11.981Z,26.31
2023-06-11T18:12:43.470Z,26.36
2023-06-11T18:17:49.799Z,26.30
2023-06-11T18:20:21.779Z,26.28
2023-06-11T18:22:53.261Z,26.21
2023-06-11T18:25:25.254Z,26.27
2023-06-11T18:27:57.109Z,26.14
2023-06-11T18:30:29.057Z,26.23
2023-06-11T18:33:00.903Z,26.31
2023-06-11T18:35:32.451Z,26.11
2023-06-11T18:38:04.244Z,26.10
2023-06-11T18:40:35.748Z,26.05
2023-06-11T18:43:07.278Z,26.15
2023-06-11T18:45:38.869Z,26.04
2023-06-11T18:48:10.849Z,25.88
2023-06-11T18:50:42.352Z,25.78
2023-06-11T18:53:14.310Z,25.53
2023-06-11T18:55:45.798Z,25.43
2023-06-11T18:58:18.443Z,25.44
2023-06-11T19:00:50.192Z,25.30
2023-06-11T19:03:21.823Z,25.21
2023-06-11T19:05:53.837Z,25.17
2023-06-11T19:08:25.367Z,25.06
2023-06-11T19:10:57.294Z,24.98
2023-06-11T19:13:28.799Z,24.88
2023-06-11T19:16:00.802Z,24.74
2023-06-11T19:18:32.301Z,24.60
2023-06-11T19:21:04.137Z,24.51
2023-06-11T19:23:35.632Z,24.37
2023-06-11T19:26:08.670Z,24.35
2023-06-11T19:28:40.165Z,24.30
2023-06-11T19:31:11.944Z,24.13
2023-06-11T19:33:43.549Z,24.05
2023-06-11T19:36:15.147Z,23.94
2023-06-11T19:38:46.706Z,23.89
2023-06-11T19:41:18.285Z,23.83
2023-06-11T19:43:50.122Z,23.68
2023-06-11T19:46:23.992Z,23.59
2023-06-11T19:48:57.434Z,23.58
2023-06-11T19:51:28.988Z,23.49
2023-06-11T19:54:00.526Z,23.41
2023-06-11T19:56:32.059Z,23.36
2023-06-11T19:59:03.848Z,23.34
2023-06-11T20:01:35.584Z,23.27
2023-06-11T20:04:07.586Z,23.15
2023-06-11T20:06:39.510Z,23.15
2023-06-11T20:09:11.115Z,23.04
2023-06-11T20:11:43.039Z,22.99
2023-06-11T20:14:14.575Z,22.90
2023-06-11T20:16:46.580Z,22.82
2023-06-11T20:19:18.295Z,22.77
2023-06-11T20:21:50.140Z,22.72
2023-06-11T20:24:21.758Z,22.73
2023-06-11T20:26:53.758Z,22.67
2023-06-11T20:29:25.777Z,22.58
2023-06-11T20:31:57.660Z,22.56
2023-06-11T20:34:29.481Z,22.51
2023-06-11T20:37:01.013Z,22.49
2023-06-11T20:39:33.066Z,22.43
2023-06-11T20:42:04.782Z,22.43
2023-06-11T20:44:36.800Z,22.40
2023-06-11T20:47:08.380Z,22.34
2023-06-11T20:49:40.502Z,22.31
2023-06-11T20:52:13.123Z,22.28
2023-06-11T20:54:44.939Z,22.22
2023-06-11T20:57:16.504Z,22.17
2023-06-11T20:59:48.490Z,22.13
2023-06-11T21:02:20.435Z,22.14
2023-06-11T21:04:52.410Z,22.13
2023-06-11T21:07:24.352Z,22.10
2023-06-11T21:09:55.848Z,22.07
2023-06-11T21:12:27.699Z,22.03
2023-06-11T21:14:59.207Z,22.02
2023-06-11T21:17:31.129Z,21.99
2023-06-11T21:20:02.664Z,21.97
2023-06-11T21:22:34.177Z,21.91
2023-06-11T21:25:05.674Z,21.88
2023-06-11T21:27:37.590Z,21.82
2023-06-11T21:30:09.200Z,21.76
2023-06-11T21:32:41.128Z,21.70
2023-06-11T21:35:13.128Z,21.62
2023-06-11T21:37:44.927Z,21.61
2023-06-11T21:40:16.943Z,21.59
2023-06-11T21:42:48.671Z,21.58
2023-06-11T21:45:20.611Z,21.47
2023-06-11T21:47:52.152Z,21.43
2023-06-11T21:50:24.004Z,21.35
2023-06-11T21:52:55.490Z,21.32
2023-06-11T21:55:27.370Z,21.24
2023-06-11T21:57:58.888Z,20.92
2023-06-11T22:00:30.439Z,21.13
2023-06-11T22:03:02.071Z,21.06
2023-06-11T22:05:33.853Z,21.00
2023-06-11T22:08:05.808Z,20.96
2023-06-11T22:10:37.782Z,20.84
2023-06-11T22:13:09.649Z,20.77
2023-06-11T22:15:41.195Z,20.73
2023-06-11T22:18:13.075Z,20.64
2023-06-11T22:20:44.742Z,20.58
2023-06-11T22:23:16.594Z,20.54
2023-06-11T22:25:48.126Z,20.46
2023-06-11T22:28:20.098Z,20.40
2023-06-11T22:30:56.821Z,20.33
2023-06-11T22:33:29.218Z,20.27
2023-06-11T22:36:00.722Z,20.19
2023-06-11T22:38:32.627Z,20.14
2023-06-11T22:41:04.237Z,20.08
2023-06-11T22:43:36.071Z,20.02
2023-06-11T22:46:07.892Z,19.95
2023-06-11T22:48:39.410Z,19.90
2023-06-11T22:51:11.351Z,19.85
2023-06-11T22:53:42.863Z,19.81
2023-06-11T22:56:14.625Z,19.75
2023-06-11T22:58:46.134Z,19.66
2023-06-11T23:01:18.025Z,19.62
2023-06-11T23:03:49.520Z,19.57
2023-06-11T23:06:21.398Z,19.54
2023-06-11T23:08:52.920Z,19.52
2023-06-11T23:11:24.729Z,19.48
2023-06-11T23:13:56.580Z,19.43
2023-06-11T23:16:28.453Z,19.36
2023-06-11T23:19:00.531Z,19.34
2023-06-11T23:21:32.082Z,19.26
2023-06-11T23:24:04.029Z,19.23
2023-06-11T23:26:35.557Z,19.19
2023-06-11T23:29:07.235Z,19.15
2023-06-11T23:31:38.780Z,19.10
2023-06-11T23:34:10.603Z,19.07
2023-06-11T23:36:42.093Z,19.03
2023-06-11T23:39:13.955Z,18.98
2023-06-11T23:41:45.444Z,18.96
2023-06-11T23:44:17.320Z,18.92
2023-06-11T23:46:48.894Z,18.85
2023-06-11T23:49:20.697Z,18.79
2023-06-11T23:51:52.512Z,18.77
2023-06-11T23:54:24.001Z,18.69
2023-06-11T23:56:55.838Z,18.66
2023-06-11T23:59:27.332Z,18.61
